Time,TemperatureF,DewpointF,PressureIn,WindDirection,WindDirectionDegrees,WindSpeedMPH,WindSpeedGustMPH,Humidity,HourlyPrecipIn,Conditions,Clouds,dailyrainin,SoftwareType,DateUTC
2013-09-02 00:11:00,63.0,58.0,29.88,SSE,147,0.0,-999.0,84,-99.99,,,-99.99,,2013-09-02 07:11:00,
2013-09-02 00:21:00,63.0,58.0,29.87,SSE,147,0.0,-999.0,85,-99.99,,,-99.99,,2013-09-02 07:21:00,
2013-09-02 00:42:00,63.0,58.0,29.88,SSE,147,0.0,-999.0,85,-99.99,,,-99.99,,2013-09-02 07:42:00,
2013-09-02 00:52:00,63.0,58.0,29.87,SSE,147,0.0,-999.0,85,-99.99,,,-99.99,,2013-09-02 07:52:00,
2013-09-02 01:11:00,63.0,58.0,29.88,SSE,147,0.0,-999.0,85,-99.99,,,-99.99,,2013-09-02 08:11:00,
2013-09-02 01:22:00,63.0,58.0,29.88,SSE,147,0.0,-999.0,85,-99.99,,,-99.99,,2013-09-02 08:22:00,
2013-09-02 01:52:00,62.0,58.0,29.88,SSE,147,0.0,-999.0,86,-99.99,,,-99.99,,2013-09-02 08:52:00,
2013-09-02 02:12:00,62.0,58.0,29.88,SSE,147,0.0,-999.0,87,-99.99,,,-99.99,,2013-09-02 09:12:00,
2013-09-02 02:22:00,62.0,58.0,29.88,SSE,147,0.0,-999.0,87,-99.99,,,-99.99,,2013-09-02 09:22:00,
2013-09-02 02:43:00,61.0,57.0,29.88,SSE,147,0.0,-999.0,88,-99.99,,,-99.99,,2013-09-02 09:43:00,
2013-09-02 02:53:00,61.0,57.0,29.88,SSE,147,0.0,-999.0,88,-99.99,,,-99.99,,2013-09-02 09:53:00,
2013-09-02 03:13:00,61.0,58.0,29.87,SSE,147,0.0,-999.0,89,-99.99,,,-99.99,,2013-09-02 10:13:00,
2013-09-02 03:22:00,60.0,57.0,29.87,SSE,147,0.0,-999.0,90,-99.99,,,-99.99,,2013-09-02 10:22:00,
2013-09-02 03:42:00,60.0,57.0,29.87,SSE,147,0.0,-999.0,90,-99.99,,,-99.99,,2013-09-02 10:42:00,
2013-09-02 03:53:00,60.0,57.0,29.87,SSE,147,0.0,-999.0,90,-99.99,,,-99.99,,2013-09-02 10:53:00,
2013-09-02 04:11:00,60.0,57.0,29.87,SSE,147,0.0,-999.0,91,-99.99,,,-99.99,,2013-09-02 11:11:00,
2013-09-02 04:22:00,60.0,57.0,29.88,SSE,147,0.0,-999.0,91,-99.99,,,-99.99,,2013-09-02 11:22:00,
2013-09-02 04:42:00,60.0,57.0,29.87,SSE,147,0.0,-999.0,91,-99.99,,,-99.99,,2013-09-02 11:42:00,
2013-09-02 04:52:00,59.0,56.0,29.87,SSE,147,0.0,-999.0,91,-99.99,,,-99.99,,2013-09-02 11:52:00,
2013-09-02 05:12:00,59.0,56.0,29.87,SSE,147,0.0,-999.0,91,-99.99,,,-99.99,,2013-09-02 12:12:00,
2013-09-02 05:21:00,58.0,55.0,29.87,SSE,147,0.0,-999.0,91,-99.99,,,-99.99,,2013-09-02 12:21:00,
2013-09-02 05:43:00,58.0,56.0,29.88,SSE,147,0.0,-999.0,92,-99.99,,,-99.99,,2013-09-02 12:43:00,
2013-09-02 05:52:00,57.0,55.0,29.88,SSE,147,0.0,-999.0,92,-99.99,,,-99.99,,2013-09-02 12:52:00,
2013-09-02 06:11:00,57.0,55.0,29.88,SSE,147,0.0,-999.0,93,-99.99,,,-99.99,,2013-09-02 13:11:00,
2013-09-02 06:21:00,57.0,55.0,29.88,SSE,147,0.0,-999.0,93,-99.99,,,-99.99,,2013-09-02 13:21:00,
2013-09-02 06:42:00,57.0,55.0,29.88,SSE,147,0.0,-999.0,93,-99.99,,,-99.99,,2013-09-02 13:42:00,
2013-09-02 06:52:00,56.0,54.0,29.89,SSE,147,0.0,-999.0,93,-99.99,,,-99.99,,2013-09-02 13:52:00,
2013-09-02 07:11:00,56.0,54.0,29.88,SSE,147,0.0,-999.0,93,-99.99,,,-99.99,,2013-09-02 14:11:00,
2013-09-02 07:22:00,56.0,54.0,29.89,SSE,147,0.0,-999.0,94,-99.99,,,-99.99,,2013-09-02 14:22:00,
2013-09-02 07:43:00,56.0,54.0,29.90,SSE,147,0.0,-999.0,94,-99.99,,,-99.99,,2013-09-02 14:43:00,
2013-09-02 07:52:00,56.0,55.0,29.90,SSE,147,0.0,-999.0,95,-99.99,,,-99.99,,2013-09-02 14:52:00,
2013-09-02 08:12:00,56.0,55.0,29.90,SSE,147,0.0,-999.0,95,-99.99,,,-99.99,,2013-09-02 15:12:00,
2013-09-02 08:23:00,56.0,55.0,29.90,SSE,147,0.0,-999.0,95,-99.99,,,-99.99,,2013-09-02 15:23:00,
2013-09-02 08:55:00,57.0,56.0,29.91,SSE,147,0.0,-999.0,96,-99.99,,,-99.99,,2013-09-02 15:55:00,
2013-09-02 09:14:00,58.0,57.0,29.91,SSE,148,0.0,-999.0,96,-99.99,,,-99.99,,2013-09-02 16:14:00,
2013-09-02 09:24:00,60.0,59.0,29.91,SSE,147,0.0,-999.0,97,-99.99,,,-99.99,,2013-09-02 16:24:00,
2013-09-02 09:53:00,66.0,63.0,29.91,ESE,112,0.0,-999.0,90,-99.99,,,-99.99,,2013-09-02 16:53:00,
2013-09-02 10:12:00,70.0,65.0,29.92,SE,134,0.0,-999.0,83,-99.99,,,-99.99,,2013-09-02 17:12:00,
2013-09-02 18:52:00,77.0,63.0,29.84,SSE,147,1.0,-999.0,63,-99.99,,,-99.99,,2013-09-03 01:52:00,
2013-09-02 19:12:00,76.0,64.0,29.84,ESE,122,0.0,-999.0,66,-99.99,,,-99.99,,2013-09-03 02:12:00,
2013-09-02 19:21:00,74.0,63.0,29.84,SE,125,0.0,-999.0,69,-99.99,,,-99.99,,2013-09-03 02:21:00,
2013-09-02 19:42:00,73.0,63.0,29.84,ESE,123,0.0,-999.0,71,-99.99,,,-99.99,,2013-09-03 02:42:00,
2013-09-02 19:52:00,71.0,62.0,29.84,ESE,123,0.0,-999.0,73,-99.99,,,-99.99,,2013-09-03 02:52:00,
2013-09-02 20:11:00,70.0,62.0,29.85,SE,128,0.0,-999.0,75,-99.99,,,-99.99,,2013-09-03 03:11:00,
2013-09-02 20:23:00,69.0,61.0,29.85,SE,129,0.0,-999.0,76,-99.99,,,-99.99,,2013-09-03 03:23:00,
2013-09-02 20:45:00,68.0,61.0,29.86,SE,129,0.0,-999.0,78,-99.99,,,-99.99,,2013-09-03 03:45:00,
2013-09-02 20:55:00,67.0,60.0,29.86,SE,128,0.0,-999.0,79,-99.99,,,-99.99,,2013-09-03 03:55:00,
2013-09-02 21:13:00,67.0,61.0,29.87,SE,128,0.0,-999.0,81,-99.99,,,-99.99,,2013-09-03 04:13:00,
2013-09-02 21:24:00,66.0,60.0,29.88,SE,128,0.0,-999.0,82,-99.99,,,-99.99,,2013-09-03 04:24:00,
2013-09-02 21:34:00,66.0,60.0,29.88,SE,128,0.0,-999.0,82,-99.99,,,-99.99,,2013-09-03 04:34:00,
2013-09-02 21:43:00,66.0,60.0,29.88,SE,128,0.0,-999.0,82,-99.99,,,-99.99,,2013-09-03 04:43:00,
2013-09-02 21:53:00,64.0,59.0,29.88,SE,128,0.0,-999.0,85,-99.99,,,-99.99,,2013-09-03 04:53:00,
2013-09-02 22:12:00,64.0,60.0,29.88,SE,128,0.0,-999.0,86,-99.99,,,-99.99,,2013-09-03 05:12:00,
2013-09-02 22:23:00,63.0,59.0,29.88,SE,128,0.0,-999.0,87,-99.99,,,-99.99,,2013-09-03 05:23:00,
2013-09-02 22:42:00,62.0,58.0,29.88,SE,128,0.0,-999.0,87,-99.99,,,-99.99,,2013-09-03 05:42:00,
2013-09-02 22:52:00,62.0,58.0,29.88,SE,128,0.0,-999.0,88,-99.99,,,-99.99,,2013-09-03 05:52:00,
2013-09-02 23:12:00,61.0,58.0,29.89,SE,129,0.0,-999.0,89,-99.99,,,-99.99,,2013-09-03 06:12:00,
2013-09-02 23:22:00,61.0,58.0,29.89,SE,128,0.0,-999.0,89,-99.99,,,-99.99,,2013-09-03 06:22:00,
2013-09-02 23:52:00,60.0,57.0,29.89,SE,128,0.0,-999.0,91,-99.99,,,-99.99,,2013-09-03 06:52:00,